sensor_id;sensor_type;location;lat;lon;timestamp;pressure;altitude;pressure_sealevel;temperature;humidity
53522;BME280;39398;48.382;9.802;2023-04-29T00:03:41;93575.78;;;11.90;100.00
53522;BME280;39398;48.382;9.802;2023-04-29T00:08:43;93572.72;;;11.93;100.00
53522;BME280;39398;48.382;9.802;2023-04-29T00:13:51;93568.88;;;11.82;100.00
53522;BME280;39398;48.382;9.802;2023-04-29T00:18:53;93567.25;;;11.74;100.00
53522;BME280;39398;48.382;9.802;2023-04-29T00:23:54;93563.56;;;11.82;100.00
53522;BME280;39398;48.382;9.802;2023-04-29T00:28:57;93557.91;;;11.85;100.00
53522;BME280;39398;48.382;9.802;2023-04-29T00:33:59;93560.16;;;11.55;100.00
53522;BME280;39398;48.382;9.802;2023-04-29T00:39:00;93566.28;;;11.49;100.00
53522;BME280;39398;48.382;9.802;2023-04-29T00:44:04;93563.63;;;11.55;100.00
53522;BME280;39398;48.382;9.802;2023-04-29T00:49:07;93559.56;;;11.59;100.00
53522;BME280;39398;48.382;9.802;2023-04-29T00:54:10;93572.97;;;11.58;100.00
53522;BME280;39398;48.382;9.802;2023-04-29T00:59:19;93567.25;;;11.88;100.00
53522;BME280;39398;48.382;9.802;2023-04-29T01:04:21;93569.69;;;11.76;100.00
53522;BME280;39398;48.382;9.802;2023-04-29T01:09:32;93575.03;;;11.56;100.00
53522;BME280;39398;48.382;9.802;2023-04-29T01:14:42;93580.09;;;11.57;100.00
53522;BME280;39398;48.382;9.802;2023-04-29T01:19:49;93579.91;;;11.59;100.00
53522;BME280;39398;48.382;9.802;2023-04-29T01:24:53;93583.16;;;11.48;100.00
53522;BME280;39398;48.382;9.802;2023-04-29T01:30:00;93580.91;;;11.45;100.00
53522;BME280;39398;48.382;9.802;2023-04-29T01:35:14;93577.25;;;11.39;100.00
53522;BME280;39398;48.382;9.802;2023-04-29T01:40:25;93575.44;;;11.39;100.00
53522;BME280;39398;48.382;9.802;2023-04-29T01:45:27;93571.16;;;11.45;100.00
53522;BME280;39398;48.382;9.802;2023-04-29T01:50:30;93563.47;;;11.30;100.00
53522;BME280;39398;48.382;9.802;2023-04-29T01:55:36;93573.81;;;11.32;100.00
53522;BME280;39398;48.382;9.802;2023-04-29T02:00:39;93566.69;;;11.32;100.00
53522;BME280;39398;48.382;9.802;2023-04-29T02:05:41;93560.19;;;11.35;100.00
53522;BME280;39398;48.382;9.802;2023-04-29T02:10:52;93556.75;;;11.34;100.00
53522;BME280;39398;48.382;9.802;2023-04-29T02:15:53;93567.50;;;11.26;100.00
53522;BME280;39398;48.382;9.802;2023-04-29T02:20:59;93566.50;;;11.34;100.00
53522;BME280;39398;48.382;9.802;2023-04-29T02:26:02;93562.66;;;11.30;100.00
53522;BME280;39398;48.382;9.802;2023-04-29T02:31:04;93567.72;;;11.25;100.00
53522;BME280;39398;48.382;9.802;2023-04-29T02:36:06;93576.06;;;11.22;100.00
53522;BME280;39398;48.382;9.802;2023-04-29T02:41:15;93570.16;;;11.33;100.00
53522;BME280;39398;48.382;9.802;2023-04-29T02:46:17;93571.38;;;11.30;100.00
53522;BME280;39398;48.382;9.802;2023-04-29T02:51:21;93568.94;;;11.29;100.00
53522;BME280;39398;48.382;9.802;2023-04-29T02:56:26;93568.53;;;11.32;100.00
53522;BME280;39398;48.382;9.802;2023-04-29T03:01:28;93560.59;;;11.32;100.00
53522;BME280;39398;48.382;9.802;2023-04-29T03:06:29;93562.66;;;11.36;100.00
53522;BME280;39398;48.382;9.802;2023-04-29T03:11:33;93557.13;;;11.51;100.00
53522;BME280;39398;48.382;9.802;2023-04-29T03:16:34;93549.41;;;11.43;100.00
53522;BME280;39398;48.382;9.802;2023-04-29T03:21:36;93553.47;;;11.39;100.00
53522;BME280;39398;48.382;9.802;2023-04-29T03:26:39;93555.53;;;11.24;100.00
53522;BME280;39398;48.382;9.802;2023-04-29T03:31:41;93555.53;;;11.30;100.00
53522;BME280;39398;48.382;9.802;2023-04-29T03:36:43;93549.84;;;11.33;100.00
53522;BME280;39398;48.382;9.802;2023-04-29T03:41:47;93546.19;;;11.14;100.00
53522;BME280;39398;48.382;9.802;2023-04-29T03:46:49;93545.16;;;11.22;100.00
53522;BME280;39398;48.382;9.802;2023-04-29T03:51:57;93546.59;;;11.25;100.00
53522;BME280;39398;48.382;9.802;2023-04-29T03:57:00;93536.44;;;11.08;100.00
53522;BME280;39398;48.382;9.802;2023-04-29T04:02:05;93540.50;;;10.98;100.00
53522;BME280;39398;48.382;9.802;2023-04-29T04:07:06;93542.53;;;11.02;100.00
53522;BME280;39398;48.382;9.802;2023-04-29T04:12:09;93539.66;;;11.04;100.00
53522;BME280;39398;48.382;9.802;2023-04-29T04:17:11;93541.91;;;11.07;100.00
53522;BME280;39398;48.382;9.802;2023-04-29T04:22:13;93549.84;;;11.00;100.00
53522;BME280;39398;48.382;9.802;2023-04-29T04:27:18;93556.53;;;11.16;100.00
53522;BME280;39398;48.382;9.802;2023-04-29T04:32:25;93563.66;;;11.29;100.00
53522;BME280;39398;48.382;9.802;2023-04-29T04:37:27;93562.03;;;11.34;100.00
53522;BME280;39398;48.382;9.802;2023-04-29T04:42:30;93564.47;;;11.29;100.00
53522;BME280;39398;48.382;9.802;2023-04-29T04:47:35;93565.69;;;11.33;100.00
53522;BME280;39398;48.382;9.802;2023-04-29T04:52:39;93575.66;;;11.31;100.00
53522;BME280;39398;48.382;9.802;2023-04-29T04:57:42;93567.31;;;11.21;100.00
53522;BME280;39398;48.382;9.802;2023-04-29T05:02:44;93581.34;;;11.28;100.00
53522;BME280;39398;48.382;9.802;2023-04-29T05:07:46;93580.94;;;11.38;100.00
53522;BME280;39398;48.382;9.802;2023-04-29T05:12:52;93583.38;;;11.53;100.00
53522;BME280;39398;48.382;9.802;2023-04-29T05:17:53;93593.91;;;11.66;100.00
53522;BME280;39398;48.382;9.802;2023-04-29T05:22:55;93595.72;;;11.85;100.00
53522;BME280;39398;48.382;9.802;2023-04-29T05:28:01;93598.88;;;12.21;100.00
53522;BME280;39398;48.382;9.802;2023-04-29T05:33:03;93605.72;;;12.48;100.00
53522;BME280;39398;48.382;9.802;2023-04-29T05:38:07;93611.72;;;12.69;100.00
53522;BME280;39398;48.382;9.802;2023-04-29T05:43:10;93613.19;;;12.96;100.00
53522;BME280;39398;48.382;9.802;2023-04-29T05:48:12;93624.53;;;13.42;100.00
53522;BME280;39398;48.382;9.802;2023-04-29T05:53:14;93625.66;;;13.78;100.00
53522;BME280;39398;48.382;9.802;2023-04-29T05:58:17;93618.19;;;14.11;100.00
53522;BME280;39398;48.382;9.802;2023-04-29T06:09:02;93624.72;;;14.52;100.00
53522;BME280;39398;48.382;9.802;2023-04-29T06:14:10;93628.59;;;14.98;100.00
53522;BME280;39398;48.382;9.802;2023-04-29T06:19:12;93632.22;;;15.04;100.00
53522;BME280;39398;48.382;9.802;2023-04-29T06:24:13;93643.41;;;15.36;100.00
53522;BME280;39398;48.382;9.802;2023-04-29T06:29:16;93644.25;;;15.06;100.00
53522;BME280;39398;48.382;9.802;2023-04-29T06:34:18;93655.84;;;14.02;100.00
53522;BME280;39398;48.382;9.802;2023-04-29T06:39:20;93650.66;;;14.87;100.00
53522;BME280;39398;48.382;9.802;2023-04-29T06:44:23;93662.59;;;13.79;100.00
53522;BME280;39398;48.382;9.802;2023-04-29T06:49:24;93648.03;;;14.25;100.00
53522;BME280;39398;48.382;9.802;2023-04-29T06:54:26;93664.63;;;14.02;100.00
53522;BME280;39398;48.382;9.802;2023-04-29T06:59:31;93661.28;;;14.07;100.00
53522;BME280;39398;48.382;9.802;2023-04-29T07:04:33;93671.34;;;13.80;100.00
53522;BME280;39398;48.382;9.802;2023-04-29T07:09:35;93676.75;;;13.41;100.00
53522;BME280;39398;48.382;9.802;2023-04-29T07:14:38;93674.81;;;13.55;100.00
53522;BME280;39398;48.382;9.802;2023-04-29T07:19:40;93677.56;;;13.42;100.00
53522;BME280;39398;48.382;9.802;2023-04-29T07:25:09;93677.97;;;13.39;100.00
53522;BME280;39398;48.382;9.802;2023-04-29T07:30:13;93683.00;;;14.22;100.00
53522;BME280;39398;48.382;9.802;2023-04-29T07:35:17;93690.13;;;13.78;100.00
53522;BME280;39398;48.382;9.802;2023-04-29T07:40:18;93689.63;;;14.13;100.00
53522;BME280;39398;48.382;9.802;2023-04-29T07:45:23;93691.03;;;14.15;100.00
53522;BME280;39398;48.382;9.802;2023-04-29T07:50:25;93691.78;;;14.23;100.00
53522;BME280;39398;48.382;9.802;2023-04-29T07:55:26;93703.13;;;14.55;100.00
53522;BME280;39398;48.382;9.802;2023-04-29T08:00:39;93692.28;;;14.56;100.00
53522;BME280;39398;48.382;9.802;2023-04-29T08:05:40;93701.94;;;14.07;100.00
53522;BME280;39398;48.382;9.802;2023-04-29T08:10:42;93716.72;;;13.71;100.00
53522;BME280;39398;48.382;9.802;2023-04-29T08:15:51;93713.19;;;14.03;100.00
53522;BME280;39398;48.382;9.802;2023-04-29T08:20:52;93701.38;;;14.42;100.00
53522;BME280;39398;48.382;9.802;2023-04-29T08:25:54;93711.16;;;15.33;100.00
53522;BME280;39398;48.382;9.802;2023-04-29T08:30:59;93705.03;;;15.33;100.00
53522;BME280;39398;48.382;9.802;2023-04-29T08:36:02;93707.63;;;15.70;100.00
53522;BME280;39398;48.382;9.802;2023-04-29T08:41:06;93711.28;;;15.08;100.00
53522;BME280;39398;48.382;9.802;2023-04-29T08:46:12;93709.06;;;14.07;100.00
53522;BME280;39398;48.382;9.802;2023-04-29T08:51:15;93716.34;;;13.93;100.00
53522;BME280;39398;48.382;9.802;2023-04-29T08:56:17;93709.03;;;13.88;100.00
53522;BME280;39398;48.382;9.802;2023-04-29T09:01:22;93709.25;;;14.74;100.00
53522;BME280;39398;48.382;9.802;2023-04-29T09:06:25;93716.16;;;14.93;100.00
53522;BME280;39398;48.382;9.802;2023-04-29T09:11:28;93715.22;;;15.36;100.00
53522;BME280;39398;48.382;9.802;2023-04-29T09:16:34;93721.56;;;15.95;100.00
53522;BME280;39398;48.382;9.802;2023-04-29T09:21:36;93715.28;;;15.48;100.00
53522;BME280;39398;48.382;9.802;2023-04-29T09:26:41;93720.28;;;14.34;100.00
53522;BME280;39398;48.382;9.802;2023-04-29T09:31:46;93731.22;;;13.94;100.00
53522;BME280;39398;48.382;9.802;2023-04-29T09:36:50;93720.91;;;14.91;100.00
53522;BME280;39398;48.382;9.802;2023-04-29T09:42:00;93716.34;;;15.28;100.00
53522;BME280;39398;48.382;9.802;2023-04-29T09:47:04;93720.41;;;16.26;100.00
53522;BME280;39398;48.382;9.802;2023-04-29T09:52:08;93711.69;;;16.78;99.88
53522;BME280;39398;48.382;9.802;2023-04-29T09:57:11;93727.81;;;16.36;100.00
53522;BME280;39398;48.382;9.802;2023-04-29T10:02:29;93729.94;;;14.72;100.00
53522;BME280;39398;48.382;9.802;2023-04-29T10:07:31;93739.47;;;13.86;100.00
53522;BME280;39398;48.382;9.802;2023-04-29T10:12:34;93735.66;;;14.25;100.00
53522;BME280;39398;48.382;9.802;2023-04-29T10:17:43;93729.41;;;14.81;100.00
53522;BME280;39398;48.382;9.802;2023-04-29T10:22:48;93731.47;;;14.79;100.00
53522;BME280;39398;48.382;9.802;2023-04-29T10:27:50;93723.28;;;14.62;100.00
53522;BME280;39398;48.382;9.802;2023-04-29T10:33:02;93736.94;;;14.41;100.00
53522;BME280;39398;48.382;9.802;2023-04-29T10:38:12;93718.91;;;14.86;100.00
53522;BME280;39398;48.382;9.802;2023-04-29T10:43:22;93724.72;;;14.40;100.00
53522;BME280;39398;48.382;9.802;2023-04-29T10:48:26;93712.56;;;14.87;100.00
53522;BME280;39398;48.382;9.802;2023-04-29T10:53:31;93718.03;;;15.41;100.00
53522;BME280;39398;48.382;9.802;2023-04-29T10:58:34;93702.81;;;15.00;100.00
53522;BME280;39398;48.382;9.802;2023-04-29T11:03:50;93703.13;;;14.55;100.00
53522;BME280;39398;48.382;9.802;2023-04-29T11:09:01;93700.53;;;15.03;100.00
53522;BME280;39398;48.382;9.802;2023-04-29T11:14:07;93691.03;;;15.26;99.46
53522;BME280;39398;48.382;9.802;2023-04-29T11:19:14;93696.53;;;15.13;100.00
53522;BME280;39398;48.382;9.802;2023-04-29T11:24:19;93684.97;;;15.19;100.00
53522;BME280;39398;48.382;9.802;2023-04-29T11:29:22;93695.34;;;15.39;100.00
53522;BME280;39398;48.382;9.802;2023-04-29T11:34:29;93701.41;;;15.57;98.61
53522;BME280;39398;48.382;9.802;2023-04-29T11:39:49;93694.56;;;15.80;100.00
53522;BME280;39398;48.382;9.802;2023-04-29T11:44:51;93686.25;;;15.16;100.00
53522;BME280;39398;48.382;9.802;2023-04-29T11:50:03;93686.47;;;15.45;100.00
53522;BME280;39398;48.382;9.802;2023-04-29T11:55:07;93687.59;;;15.07;100.00
53522;BME280;39398;48.382;9.802;2023-04-29T12:00:10;93682.50;;;15.47;100.00
53522;BME280;39398;48.382;9.802;2023-04-29T12:05:14;93690.28;;;15.19;100.00
53522;BME280;39398;48.382;9.802;2023-04-29T12:10:16;93688.50;;;15.01;100.00
53522;BME280;39398;48.382;9.802;2023-04-29T12:15:18;93693.50;;;15.39;100.00
53522;BME280;39398;48.382;9.802;2023-04-29T12:20:21;93695.00;;;15.35;100.00
53522;BME280;39398;48.382;9.802;2023-04-29T12:25:25;93678.19;;;15.23;100.00
53522;BME280;39398;48.382;9.802;2023-04-29T12:30:27;93700.47;;;15.22;100.00
53522;BME280;39398;48.382;9.802;2023-04-29T12:35:31;93694.69;;;15.55;100.00
53522;BME280;39398;48.382;9.802;2023-04-29T12:40:33;93694.81;;;15.48;100.00
53522;BME280;39398;48.382;9.802;2023-04-29T12:45:38;93686.78;;;15.06;100.00
53522;BME280;39398;48.382;9.802;2023-04-29T12:50:48;93694.19;;;15.46;100.00
53522;BME280;39398;48.382;9.802;2023-04-29T12:55:51;93700.25;;;15.23;100.00
53522;BME280;39398;48.382;9.802;2023-04-29T13:01:00;93691.34;;;15.48;100.00
53522;BME280;39398;48.382;9.802;2023-04-29T13:18:11;93689.81;;;14.92;100.00
53522;BME280;39398;48.382;9.802;2023-04-29T13:23:15;93687.63;;;14.88;100.00
53522;BME280;39398;48.382;9.802;2023-04-29T13:28:17;93693.63;;;14.65;100.00
53522;BME280;39398;48.382;9.802;2023-04-29T13:33:25;93697.84;;;15.64;100.00
53522;BME280;39398;48.382;9.802;2023-04-29T13:38:26;93701.69;;;14.34;100.00
53522;BME280;39398;48.382;9.802;2023-04-29T13:43:28;93698.78;;;14.60;100.00
53522;BME280;39398;48.382;9.802;2023-04-29T13:48:41;93718.25;;;14.91;100.00
53522;BME280;39398;48.382;9.802;2023-04-29T13:54:03;93711.41;;;14.22;100.00
53522;BME280;39398;48.382;9.802;2023-04-29T13:59:27;93718.19;;;14.17;100.00
53522;BME280;39398;48.382;9.802;2023-04-29T14:04:50;93727.94;;;14.42;100.00
53522;BME280;39398;48.382;9.802;2023-04-29T14:09:52;93714.13;;;13.90;100.00
53522;BME280;39398;48.382;9.802;2023-04-29T14:14:55;93718.50;;;14.28;100.00
53522;BME280;39398;48.382;9.802;2023-04-29T14:20:05;93733.56;;;13.52;100.00
53522;BME280;39398;48.382;9.802;2023-04-29T14:25:07;93728.47;;;13.82;100.00
53522;BME280;39398;48.382;9.802;2023-04-29T14:30:10;93729.16;;;14.46;100.00
53522;BME280;39398;48.382;9.802;2023-04-29T14:35:13;93739.03;;;13.89;100.00
53522;BME280;39398;48.382;9.802;2023-04-29T14:40:15;93744.25;;;14.02;100.00
53522;BME280;39398;48.382;9.802;2023-04-29T14:45:16;93739.41;;;13.67;100.00
53522;BME280;39398;48.382;9.802;2023-04-29T14:50:22;93755.13;;;13.62;100.00
53522;BME280;39398;48.382;9.802;2023-04-29T14:55:33;93754.94;;;13.19;100.00
53522;BME280;39398;48.382;9.802;2023-04-29T15:00:36;93750.03;;;13.22;100.00
53522;BME280;39398;48.382;9.802;2023-04-29T15:05:43;93749.41;;;13.34;100.00
53522;BME280;39398;48.382;9.802;2023-04-29T15:10:47;93751.56;;;13.50;100.00
53522;BME280;39398;48.382;9.802;2023-04-29T15:16:00;93772.44;;;13.33;100.00
53522;BME280;39398;48.382;9.802;2023-04-29T15:21:04;93776.03;;;13.45;100.00
53522;BME280;39398;48.382;9.802;2023-04-29T15:26:05;93786.88;;;12.92;100.00
53522;BME280;39398;48.382;9.802;2023-04-29T15:31:07;93787.09;;;12.84;100.00
53522;BME280;39398;48.382;9.802;2023-04-29T15:36:12;93787.53;;;12.68;100.00
53522;BME280;39398;48.382;9.802;2023-04-29T15:41:13;93788.31;;;12.82;100.00
53522;BME280;39398;48.382;9.802;2023-04-29T15:46:15;93774.63;;;12.91;100.00
53522;BME280;39398;48.382;9.802;2023-04-29T15:51:18;93780.84;;;12.59;100.00
53522;BME280;39398;48.382;9.802;2023-04-29T15:56:20;93798.78;;;12.30;100.00
53522;BME280;39398;48.382;9.802;2023-04-29T16:01:24;93808.16;;;12.32;100.00
53522;BME280;39398;48.382;9.802;2023-04-29T16:06:28;93797.53;;;11.79;100.00
53522;BME280;39398;48.382;9.802;2023-04-29T16:11:37;93817.50;;;12.62;100.00
53522;BME280;39398;48.382;9.802;2023-04-29T16:16:38;93818.34;;;12.36;100.00
53522;BME280;39398;48.382;9.802;2023-04-29T16:21:42;93826.03;;;12.57;100.00
53522;BME280;39398;48.382;9.802;2023-04-29T16:26:43;93828.03;;;12.88;100.00
53522;BME280;39398;48.382;9.802;2023-04-29T16:31:45;93832.38;;;12.43;100.00
53522;BME280;39398;48.382;9.802;2023-04-29T16:36:51;93851.94;;;12.55;100.00
53522;BME280;39398;48.382;9.802;2023-04-29T16:41:55;93826.44;;;11.81;100.00
53522;BME280;39398;48.382;9.802;2023-04-29T16:46:57;93833.53;;;11.74;100.00
53522;BME280;39398;48.382;9.802;2023-04-29T16:52:00;93838.41;;;11.83;100.00
53522;BME280;39398;48.382;9.802;2023-04-29T16:57:01;93844.56;;;11.23;100.00
53522;BME280;39398;48.382;9.802;2023-04-29T17:02:03;93849.34;;;10.99;100.00
53522;BME280;39398;48.382;9.802;2023-04-29T17:07:06;93866.91;;;11.20;100.00
53522;BME280;39398;48.382;9.802;2023-04-29T17:12:11;93849.63;;;10.76;100.00
53522;BME280;39398;48.382;9.802;2023-04-29T17:17:13;93872.50;;;11.04;100.00
53522;BME280;39398;48.382;9.802;2023-04-29T17:22:18;93864.13;;;10.93;100.00
53522;BME280;39398;48.382;9.802;2023-04-29T17:27:19;93863.03;;;10.81;100.00
53522;BME280;39398;48.382;9.802;2023-04-29T17:32:21;93859.72;;;10.66;100.00
53522;BME280;39398;48.382;9.802;2023-04-29T17:37:24;93881.53;;;10.81;100.00
53522;BME280;39398;48.382;9.802;2023-04-29T17:42:26;93881.81;;;10.65;100.00
53522;BME280;39398;48.382;9.802;2023-04-29T17:47:35;93892.00;;;10.68;100.00
53522;BME280;39398;48.382;9.802;2023-04-29T17:52:38;93887.19;;;10.43;100.00
53522;BME280;39398;48.382;9.802;2023-04-29T17:57:40;93886.19;;;10.51;100.00
53522;BME280;39398;48.382;9.802;2023-04-29T18:02:41;93891.00;;;10.19;100.00
53522;BME280;39398;48.382;9.802;2023-04-29T18:07:47;93896.50;;;10.46;100.00
53522;BME280;39398;48.382;9.802;2023-04-29T18:12:48;93901.16;;;10.22;100.00
53522;BME280;39398;48.382;9.802;2023-04-29T18:17:50;93905.44;;;10.02;100.00
53522;BME280;39398;48.382;9.802;2023-04-29T18:22:53;93907.88;;;9.82;100.00
53522;BME280;39398;48.382;9.802;2023-04-29T18:27:55;93898.75;;;9.63;100.00
53522;BME280;39398;48.382;9.802;2023-04-29T18:33:14;93907.03;;;9.60;100.00
53522;BME280;39398;48.382;9.802;2023-04-29T18:38:17;93913.06;;;9.54;100.00
53522;BME280;39398;48.382;9.802;2023-04-29T18:43:18;93918.88;;;9.49;100.00
53522;BME280;39398;48.382;9.802;2023-04-29T18:48:20;93917.03;;;9.50;100.00
53522;BME280;39398;48.382;9.802;2023-04-29T18:53:25;93921.50;;;9.49;100.00
53522;BME280;39398;48.382;9.802;2023-04-29T18:58:27;93935.31;;;9.51;100.00
53522;BME280;39398;48.382;9.802;2023-04-29T19:03:29;93942.31;;;9.44;100.00
53522;BME280;39398;48.382;9.802;2023-04-29T19:08:32;93944.84;;;9.52;100.00
53522;BME280;39398;48.382;9.802;2023-04-29T19:13:36;93948.97;;;9.40;100.00
53522;BME280;39398;48.382;9.802;2023-04-29T19:18:38;93955.75;;;9.35;100.00
53522;BME280;39398;48.382;9.802;2023-04-29T19:23:44;93960.59;;;9.01;100.00
53522;BME280;39398;48.382;9.802;2023-04-29T19:28:45;93967.78;;;9.07;100.00
53522;BME280;39398;48.382;9.802;2023-04-29T19:33:48;93970.13;;;9.02;100.00
53522;BME280;39398;48.382;9.802;2023-04-29T19:38:51;93974.13;;;8.98;100.00
53522;BME280;39398;48.382;9.802;2023-04-29T19:43:55;93970.06;;;9.25;100.00
53522;BME280;39398;48.382;9.802;2023-04-29T19:49:04;93973.72;;;8.72;100.00
53522;BME280;39398;48.382;9.802;2023-04-29T19:54:09;93983.38;;;8.94;100.00
53522;BME280;39398;48.382;9.802;2023-04-29T19:59:12;93981.88;;;8.77;100.00
53522;BME280;39398;48.382;9.802;2023-04-29T20:04:16;93980.69;;;8.65;100.00
53522;BME280;39398;48.382;9.802;2023-04-29T20:09:19;93984.88;;;8.74;100.00
53522;BME280;39398;48.382;9.802;2023-04-29T20:14:21;93981.06;;;8.76;100.00
53522;BME280;39398;48.382;9.802;2023-04-29T20:19:23;93991.16;;;8.73;100.00
53522;BME280;39398;48.382;9.802;2023-04-29T20:24:28;93990.09;;;8.82;100.00
53522;BME280;39398;48.382;9.802;2023-04-29T20:29:30;93994.53;;;8.96;100.00
53522;BME280;39398;48.382;9.802;2023-04-29T20:34:32;93993.53;;;8.82;100.00
53522;BME280;39398;48.382;9.802;2023-04-29T20:39:35;93998.22;;;8.72;100.00
53522;BME280;39398;48.382;9.802;2023-04-29T20:44:37;94012.50;;;8.78;100.00
53522;BME280;39398;48.382;9.802;2023-04-29T20:49:47;94015.13;;;8.78;100.00
53522;BME280;39398;48.382;9.802;2023-04-29T20:54:50;94024.00;;;8.77;100.00
53522;BME280;39398;48.382;9.802;2023-04-29T20:59:52;94022.94;;;8.86;100.00
53522;BME280;39398;48.382;9.802;2023-04-29T21:04:54;94021.88;;;8.57;100.00
53522;BME280;39398;48.382;9.802;2023-04-29T21:09:57;94027.56;;;8.46;100.00
53522;BME280;39398;48.382;9.802;2023-04-29T21:14:58;94025.13;;;8.36;100.00
53522;BME280;39398;48.382;9.802;2023-04-29T21:20:00;94024.16;;;8.29;100.00
53522;BME280;39398;48.382;9.802;2023-04-29T21:25:04;94028.81;;;8.27;100.00
53522;BME280;39398;48.382;9.802;2023-04-29T21:30:06;94024.47;;;8.34;100.00
53522;BME280;39398;48.382;9.802;2023-04-29T21:35:10;94031.91;;;8.31;100.00
53522;BME280;39398;48.382;9.802;2023-04-29T21:40:14;94018.63;;;8.55;100.00
53522;BME280;39398;48.382;9.802;2023-04-29T21:45:16;94009.53;;;8.58;100.00
53522;BME280;39398;48.382;9.802;2023-04-29T21:50:18;94026.09;;;8.44;100.00
53522;BME280;39398;48.382;9.802;2023-04-29T21:55:21;94023.16;;;8.38;100.00
53522;BME280;39398;48.382;9.802;2023-04-29T22:00:22;94026.75;;;8.37;100.00
53522;BME280;39398;48.382;9.802;2023-04-29T22:05:24;94029.38;;;8.37;100.00
53522;BME280;39398;48.382;9.802;2023-04-29T22:10:28;94023.00;;;8.40;100.00
53522;BME280;39398;48.382;9.802;2023-04-29T22:15:29;94019.88;;;8.36;100.00
53522;BME280;39398;48.382;9.802;2023-04-29T22:20:31;94020.09;;;8.27;100.00
53522;BME280;39398;48.382;9.802;2023-04-29T22:25:36;94024.22;;;7.98;100.00
53522;BME280;39398;48.382;9.802;2023-04-29T22:30:40;94022.63;;;7.89;100.00
53522;BME280;39398;48.382;9.802;2023-04-29T22:35:42;94028.50;;;7.91;100.00
53522;BME280;39398;48.382;9.802;2023-04-29T22:40:52;94028.28;;;8.01;100.00
53522;BME280;39398;48.382;9.802;2023-04-29T22:45:57;94031.81;;;8.16;100.00
53522;BME280;39398;48.382;9.802;2023-04-29T22:50:59;94041.28;;;8.02;100.00
53522;BME280;39398;48.382;9.802;2023-04-29T22:56:02;94028.66;;;7.98;100.00
53522;BME280;39398;48.382;9.802;2023-04-29T23:01:04;94034.28;;;7.95;100.00
53522;BME280;39398;48.382;9.802;2023-04-29T23:06:05;94026.75;;;7.83;100.00
53522;BME280;39398;48.382;9.802;2023-04-29T23:11:09;94028.59;;;7.75;100.00
53522;BME280;39398;48.382;9.802;2023-04-29T23:16:10;94028.44;;;7.76;100.00
53522;BME280;39398;48.382;9.802;2023-04-29T23:21:12;94024.88;;;7.69;100.00
53522;BME280;39398;48.382;9.802;2023-04-29T23:26:15;94031.22;;;7.75;100.00
53522;BME280;39398;48.382;9.802;2023-04-29T23:31:17;94029.94;;;7.71;100.00
53522;BME280;39398;48.382;9.802;2023-04-29T23:36:21;94040.69;;;7.92;100.00
53522;BME280;39398;48.382;9.802;2023-04-29T23:41:24;94035.91;;;8.50;100.00
53522;BME280;39398;48.382;9.802;2023-04-29T23:46:27;94041.88;;;8.44;100.00
53522;BME280;39398;48.382;9.802;2023-04-29T23:51:28;94040.09;;;8.36;100.00
53522;BME280;39398;48.382;9.802;2023-04-29T23:56:31;94030.66;;;8.19;100.00
